sensor_id;sensor_type;location;lat;lon;timestamp;P1;P2;P0
74432;PMS7003;62865;53.146;23.172;2022-08-16T00:04:00;18.6;16.8;12
74432;PMS7003;62865;53.146;23.172;2022-08-16T00:09:11;17.4;16.4;10.8
74432;PMS7003;62865;53.146;23.172;2022-08-16T00:14:04;19.2;18.4;12
74432;PMS7003;62865;53.146;23.172;2022-08-16T00:19:04;16.8;15.4;11
74432;PMS7003;62865;53.146;23.172;2022-08-16T00:24:07;17.4;16.4;11.6
74432;PMS7003;62865;53.146;23.172;2022-08-16T00:29:15;18.4;17.2;11.4
74432;PMS7003;62865;53.146;23.172;2022-08-16T00:33:41;17.8;16;11.2
74432;PMS7003;62865;53.146;23.172;2022-08-16T00:38:41;19.2;17.4;11
74432;PMS7003;62865;53.146;23.172;2022-08-16T00:43:53;19;17.8;12
74432;PMS7003;62865;53.146;23.172;2022-08-16T00:49:12;18.6;18;11
74432;PMS7003;62865;53.146;23.172;2022-08-16T00:54:13;18.4;17.2;11.4
74432;PMS7003;62865;53.146;23.172;2022-08-16T00:58:42;19.8;18.4;11.8
74432;PMS7003;62865;53.146;23.172;2022-08-16T01:04:17;18.6;17.6;11.8
74432;PMS7003;62865;53.146;23.172;2022-08-16T01:09:04;19.2;17.8;12.2
74432;PMS7003;62865;53.146;23.172;2022-08-16T01:14:17;18;17;11.6
74432;PMS7003;62865;53.146;23.172;2022-08-16T01:18:57;20.2;19;12.4
74432;PMS7003;62865;53.146;23.172;2022-08-16T01:24:48;19.6;18;12
74432;PMS7003;62865;53.146;23.172;2022-08-16T01:28:53;20.4;18.4;12.4
74432;PMS7003;62865;53.146;23.172;2022-08-16T01:34:04;21.6;20;13.8
74432;PMS7003;62865;53.146;23.172;2022-08-16T01:38:43;22.6;20.4;13.8
74432;PMS7003;62865;53.146;23.172;2022-08-16T01:43:53;20;18.8;13
74432;PMS7003;62865;53.146;23.172;2022-08-16T01:49:20;21.8;20.6;13.8
74432;PMS7003;62865;53.146;23.172;2022-08-16T01:54:17;21.8;20;12.8
74432;PMS7003;62865;53.146;23.172;2022-08-16T01:59:04;23.6;20.4;12.8
74432;PMS7003;62865;53.146;23.172;2022-08-16T02:04:20;20.6;20;14
74432;PMS7003;62865;53.146;23.172;2022-08-16T02:09:22;21.6;19.6;12.6
74432;PMS7003;62865;53.146;23.172;2022-08-16T02:14:15;22;19.8;13.2
74432;PMS7003;62865;53.146;23.172;2022-08-16T02:18:41;22;19.8;13.2
74432;PMS7003;62865;53.146;23.172;2022-08-16T02:23:41;22.8;21.2;13.8
74432;PMS7003;62865;53.146;23.172;2022-08-16T02:29:19;23.8;21.8;14.2
74432;PMS7003;62865;53.146;23.172;2022-08-16T02:34:12;22.4;20.4;13.6
74432;PMS7003;62865;53.146;23.172;2022-08-16T02:39:06;22.2;20;13.4
74432;PMS7003;62865;53.146;23.172;2022-08-16T02:44:12;21.8;20.6;14
74432;PMS7003;62865;53.146;23.172;2022-08-16T02:49:05;21.2;19.8;13.2
74432;PMS7003;62865;53.146;23.172;2022-08-16T02:53:59;21.6;20.2;13.6
74432;PMS7003;62865;53.146;23.172;2022-08-16T02:59:09;21.6;19.2;13
74432;PMS7003;62865;53.146;23.172;2022-08-16T03:04:19;20.4;19.2;13
74432;PMS7003;62865;53.146;23.172;2022-08-16T03:08:41;22.8;20.8;13.4
74432;PMS7003;62865;53.146;23.172;2022-08-16T03:13:55;21;19.6;12.8
74432;PMS7003;62865;53.146;23.172;2022-08-16T03:19:19;24.2;20.8;14.6
74432;PMS7003;62865;53.146;23.172;2022-08-16T03:24:11;23.4;20.2;13.4
74432;PMS7003;62865;53.146;23.172;2022-08-16T03:29:24;21.4;19.6;13
74432;PMS7003;62865;53.146;23.172;2022-08-16T03:34:01;23.2;21.8;14.2
74432;PMS7003;62865;53.146;23.172;2022-08-16T03:39:11;23.4;21.2;13.6
74432;PMS7003;62865;53.146;23.172;2022-08-16T03:44:21;23.6;20.6;13.6
74432;PMS7003;62865;53.146;23.172;2022-08-16T03:48:59;22.8;20.3;14.3
74432;PMS7003;62865;53.146;23.172;2022-08-16T03:53:59;23.8;21.8;13.6
74432;PMS7003;62865;53.146;23.172;2022-08-16T03:58:53;23.2;20.8;14.4
74432;PMS7003;62865;53.146;23.172;2022-08-16T04:03:53;22.4;21;13.8
74432;PMS7003;62865;53.146;23.172;2022-08-16T04:09:03;24.4;20.4;14
74432;PMS7003;62865;53.146;23.172;2022-08-16T04:14:03;26.2;23.2;15.4
74432;PMS7003;62865;53.146;23.172;2022-08-16T04:19:17;24.2;22.4;14.6
74432;PMS7003;62865;53.146;23.172;2022-08-16T04:24:19;27;24;14.4
74432;PMS7003;62865;53.146;23.172;2022-08-16T04:29:02;23.6;21.8;14
74432;PMS7003;62865;53.146;23.172;2022-08-16T04:34:25;24.8;21.6;14.2
74432;PMS7003;62865;53.146;23.172;2022-08-16T04:39:21;24.2;23;14.8
74432;PMS7003;62865;53.146;23.172;2022-08-16T04:44:21;24;22.6;15.2
74432;PMS7003;62865;53.146;23.172;2022-08-16T04:48:59;25.2;22.6;14.6
74432;PMS7003;62865;53.146;23.172;2022-08-16T04:53:41;26.4;24.6;16.4
74432;PMS7003;62865;53.146;23.172;2022-08-16T04:59:21;25.8;24;14.8
74432;PMS7003;62865;53.146;23.172;2022-08-16T05:04:09;24.2;22.2;15.6
74432;PMS7003;62865;53.146;23.172;2022-08-16T05:08:41;25.6;23.4;15.8
74432;PMS7003;62865;53.146;23.172;2022-08-16T05:14:14;24.2;23.2;15.8
74432;PMS7003;62865;53.146;23.172;2022-08-16T05:19:07;24.8;23;15
74432;PMS7003;62865;53.146;23.172;2022-08-16T05:24:09;26.6;24.6;15.6
74432;PMS7003;62865;53.146;23.172;2022-08-16T05:29:11;25;21.8;15
74432;PMS7003;62865;53.146;23.172;2022-08-16T05:34:23;26;23.8;15.6
74432;PMS7003;62865;53.146;23.172;2022-08-16T05:39:11;26.2;24.6;16
74432;PMS7003;62865;53.146;23.172;2022-08-16T05:44:01;25;22.6;15.6
74432;PMS7003;62865;53.146;23.172;2022-08-16T05:48:49;25.2;23.8;15.8
74432;PMS7003;62865;53.146;23.172;2022-08-16T05:54:24;25.2;22.8;14.8
74432;PMS7003;62865;53.146;23.172;2022-08-16T05:59:24;24.8;22.6;14.8
74432;PMS7003;62865;53.146;23.172;2022-08-16T06:04:16;25.8;23.4;16
74432;PMS7003;62865;53.146;23.172;2022-08-16T06:09:25;25.2;23.2;16.4
74432;PMS7003;62865;53.146;23.172;2022-08-16T06:14:14;23.2;22.2;15
74432;PMS7003;62865;53.146;23.172;2022-08-16T06:18:47;25;23.4;15.4
74432;PMS7003;62865;53.146;23.172;2022-08-16T06:24:15;26;24;15.8
74432;PMS7003;62865;53.146;23.172;2022-08-16T06:28:55;25.8;23;15
74432;PMS7003;62865;53.146;23.172;2022-08-16T06:33:57;22.8;20.6;14
74432;PMS7003;62865;53.146;23.172;2022-08-16T06:38:42;26.2;25;15.6
74432;PMS7003;62865;53.146;23.172;2022-08-16T06:43:54;25.4;23;15.8
74432;PMS7003;62865;53.146;23.172;2022-08-16T06:49:21;26.2;23.6;15.2
74432;PMS7003;62865;53.146;23.172;2022-08-16T06:54:11;28.4;26.6;16.4
74432;PMS7003;62865;53.146;23.172;2022-08-16T06:59:03;31.6;28.2;18.2
74432;PMS7003;62865;53.146;23.172;2022-08-16T07:04:03;26.6;25.2;16
74432;PMS7003;62865;53.146;23.172;2022-08-16T07:09:12;27.6;24.4;16.4
74432;PMS7003;62865;53.146;23.172;2022-08-16T07:14:25;31;28;18
74432;PMS7003;62865;53.146;23.172;2022-08-16T07:19:15;27.4;24.6;15.6
74432;PMS7003;62865;53.146;23.172;2022-08-16T07:23:55;26.6;23.6;16.2
74432;PMS7003;62865;53.146;23.172;2022-08-16T07:28:53;26.4;23.8;15.4
74432;PMS7003;62865;53.146;23.172;2022-08-16T07:34:13;25.8;24.4;16.2
74432;PMS7003;62865;53.146;23.172;2022-08-16T07:39:05;26.6;24.8;16.4
74432;PMS7003;62865;53.146;23.172;2022-08-16T07:44:17;25.8;24.6;16.6
74432;PMS7003;62865;53.146;23.172;2022-08-16T07:49:06;35.8;29.6;17.4
74432;PMS7003;62865;53.146;23.172;2022-08-16T07:54:11;28;25.4;15.6
74432;PMS7003;62865;53.146;23.172;2022-08-16T07:59:15;24.4;23.4;15.8
74432;PMS7003;62865;53.146;23.172;2022-08-16T08:04:25;26;24.4;16.4
74432;PMS7003;62865;53.146;23.172;2022-08-16T08:08:59;28;25;17.2
74432;PMS7003;62865;53.146;23.172;2022-08-16T08:13:48;26.8;25.2;16.8
74432;PMS7003;62865;53.146;23.172;2022-08-16T08:19:24;29.2;26.6;17.6
74432;PMS7003;62865;53.146;23.172;2022-08-16T08:24:25;28;26.6;17.2
74432;PMS7003;62865;53.146;23.172;2022-08-16T08:29:28;25.4;24;16
74432;PMS7003;62865;53.146;23.172;2022-08-16T08:33:51;28.6;25.4;16.6
74432;PMS7003;62865;53.146;23.172;2022-08-16T08:39:25;28.6;26.6;16.6
74432;PMS7003;62865;53.146;23.172;2022-08-16T08:44:15;29.4;27.2;18.2
74432;PMS7003;62865;53.146;23.172;2022-08-16T08:48:58;27;25.6;17.2
74432;PMS7003;62865;53.146;23.172;2022-08-16T08:53:59;29;27.4;16.8
74432;PMS7003;62865;53.146;23.172;2022-08-16T08:58:41;31.4;28.6;18.6
74432;PMS7003;62865;53.146;23.172;2022-08-16T09:03:41;30.3;27.8;18.8
74432;PMS7003;62865;53.146;23.172;2022-08-16T09:08:55;31;26.6;17.8
74432;PMS7003;62865;53.146;23.172;2022-08-16T09:14:07;31;28.4;18.2
74432;PMS7003;62865;53.146;23.172;2022-08-16T09:19:16;31.2;27.4;19
74432;PMS7003;62865;53.146;23.172;2022-08-16T09:24:09;30.2;27.8;18.4
74432;PMS7003;62865;53.146;23.172;2022-08-16T09:29:03;30;28.8;18.6
74432;PMS7003;62865;53.146;23.172;2022-08-16T09:34:03;30;26.6;18
74432;PMS7003;62865;53.146;23.172;2022-08-16T09:39:24;30;27.2;18
74432;PMS7003;62865;53.146;23.172;2022-08-16T09:44:26;30;28.2;18.8
74432;PMS7003;62865;53.146;23.172;2022-08-16T09:49:18;28.4;26.8;17.4
74432;PMS7003;62865;53.146;23.172;2022-08-16T09:53:54;30.2;27.6;17.6
74432;PMS7003;62865;53.146;23.172;2022-08-16T09:58:41;30.8;28.2;18.2
74432;PMS7003;62865;53.146;23.172;2022-08-16T10:04:23;31.2;28.6;18.6
74432;PMS7003;62865;53.146;23.172;2022-08-16T10:09:12;30;28.2;18.6
74432;PMS7003;62865;53.146;23.172;2022-08-16T10:14:09;31.8;28.6;19
74432;PMS7003;62865;53.146;23.172;2022-08-16T10:19:21;35.8;31.4;19.8
74432;PMS7003;62865;53.146;23.172;2022-08-16T10:24:09;34;30;19.8
74432;PMS7003;62865;53.146;23.172;2022-08-16T10:29:00;32.2;29.2;18.6
74432;PMS7003;62865;53.146;23.172;2022-08-16T10:34:23;33;29;19.2
74432;PMS7003;62865;53.146;23.172;2022-08-16T10:39:19;34;29.8;19.2
74432;PMS7003;62865;53.146;23.172;2022-08-16T10:43:57;34.2;30;19
74432;PMS7003;62865;53.146;23.172;2022-08-16T10:48:51;39.2;33;21
74432;PMS7003;62865;53.146;23.172;2022-08-16T10:54:22;34.6;30.2;19.4
74432;PMS7003;62865;53.146;23.172;2022-08-16T10:59:13;33.8;29.8;18.4
74432;PMS7003;62865;53.146;23.172;2022-08-16T11:04:24;30.6;26.6;18.2
74432;PMS7003;62865;53.146;23.172;2022-08-16T11:09:01;29.2;26.8;18.2
74432;PMS7003;62865;53.146;23.172;2022-08-16T11:14:17;29.4;27.2;18.4
74432;PMS7003;62865;53.146;23.172;2022-08-16T11:19:21;30.4;26.8;18.2
74432;PMS7003;62865;53.146;23.172;2022-08-16T11:23:59;28.6;25.8;18
74432;PMS7003;62865;53.146;23.172;2022-08-16T11:28:59;27.8;26;17.6
74432;PMS7003;62865;53.146;23.172;2022-08-16T11:33:59;30;26.8;17.2
74432;PMS7003;62865;53.146;23.172;2022-08-16T11:38:51;28.2;26;18.4
74432;PMS7003;62865;53.146;23.172;2022-08-16T11:44:04;26;24.2;16.6
74432;PMS7003;62865;53.146;23.172;2022-08-16T11:48:49;28.2;25.6;17.6
74432;PMS7003;62865;53.146;23.172;2022-08-16T11:54:24;28.2;25.4;17.8
74432;PMS7003;62865;53.146;23.172;2022-08-16T11:59:24;26.8;24.2;16
74432;PMS7003;62865;53.146;23.172;2022-08-16T12:03:53;25;24.4;17
74432;PMS7003;62865;53.146;23.172;2022-08-16T12:09:26;26;24.6;17
74432;PMS7003;62865;53.146;23.172;2022-08-16T12:14:23;25.4;23.4;15.8
74432;PMS7003;62865;53.146;23.172;2022-08-16T12:19:19;26.2;25;17.2
74432;PMS7003;62865;53.146;23.172;2022-08-16T12:23:41;24.4;22.8;15.6
74432;PMS7003;62865;53.146;23.172;2022-08-16T12:28:55;25.8;22.6;16
74432;PMS7003;62865;53.146;23.172;2022-08-16T12:34:25;25.2;24;16.4
74432;PMS7003;62865;53.146;23.172;2022-08-16T12:39:16;21;20.2;14.6
74432;PMS7003;62865;53.146;23.172;2022-08-16T12:43:41;25.2;23.8;15.6
74432;PMS7003;62865;53.146;23.172;2022-08-16T12:49:11;23.2;22.2;15.4
74432;PMS7003;62865;53.146;23.172;2022-08-16T12:54:10;24.6;22.4;14.6
74432;PMS7003;62865;53.146;23.172;2022-08-16T12:59:04;23;20.6;14.8
74432;PMS7003;62865;53.146;23.172;2022-08-16T13:04:13;23.2;21.8;14.8
74432;PMS7003;62865;53.146;23.172;2022-08-16T13:09:24;25.2;23;14.8
74432;PMS7003;62865;53.146;23.172;2022-08-16T13:13:53;24;22.2;14.4
74432;PMS7003;62865;53.146;23.172;2022-08-16T13:19:11;21.6;20.8;14.2
74432;PMS7003;62865;53.146;23.172;2022-08-16T13:24:19;24.6;22;15.8
74432;PMS7003;62865;53.146;23.172;2022-08-16T13:29:21;33.6;30.4;20.4
74432;PMS7003;62865;53.146;23.172;2022-08-16T13:34:23;22.4;20.4;13.6
74432;PMS7003;62865;53.146;23.172;2022-08-16T13:39:02;28.6;24.8;16.8
74432;PMS7003;62865;53.146;23.172;2022-08-16T13:44:15;32;27.6;17.6
74432;PMS7003;62865;53.146;23.172;2022-08-16T13:49:09;25.8;24.6;16.6
74432;PMS7003;62865;53.146;23.172;2022-08-16T13:54:01;23;21;14.8
74432;PMS7003;62865;53.146;23.172;2022-08-16T13:59:02;24.8;21.6;15
74432;PMS7003;62865;53.146;23.172;2022-08-16T14:04:02;21;19.6;14.2
74432;PMS7003;62865;53.146;23.172;2022-08-16T14:09:09;22.8;21.4;15
74432;PMS7003;62865;53.146;23.172;2022-08-16T14:13:41;26;22.5;15.3
74432;PMS7003;62865;53.146;23.172;2022-08-16T14:19:06;22;20.8;14.6
74432;PMS7003;62865;53.146;23.172;2022-08-16T14:24:23;22.4;20.6;14.6
74432;PMS7003;62865;53.146;23.172;2022-08-16T14:29:08;22;20.6;14.6
74432;PMS7003;62865;53.146;23.172;2022-08-16T18:03:04;22;19.5;13
74432;PMS7003;62865;53.146;23.172;2022-08-16T18:08:30;20.4;18.6;12.8
74432;PMS7003;62865;53.146;23.172;2022-08-16T18:13:24;19.8;17.2;11.6
74432;PMS7003;62865;53.146;23.172;2022-08-16T18:18:02;17.6;17.2;12.2
74432;PMS7003;62865;53.146;23.172;2022-08-16T18:23:30;16.8;16.2;11.6
74432;PMS7003;62865;53.146;23.172;2022-08-16T18:28:36;17.6;16.4;10.8
74432;PMS7003;62865;53.146;23.172;2022-08-16T18:33:22;17.6;15.8;10.6
74432;PMS7003;62865;53.146;23.172;2022-08-16T18:38:21;17.2;15;9.6
74432;PMS7003;62865;53.146;23.172;2022-08-16T18:43:35;15.8;14.6;10.2
74432;PMS7003;62865;53.146;23.172;2022-08-16T18:48:27;14.2;13.2;9.4
74432;PMS7003;62865;53.146;23.172;2022-08-16T18:53:38;17;15;10
74432;PMS7003;62865;53.146;23.172;2022-08-16T18:58:15;15.4;14;9.6
74432;PMS7003;62865;53.146;23.172;2022-08-16T19:03:29;15;14.2;10.2
74432;PMS7003;62865;53.146;23.172;2022-08-16T19:08:38;17;14.4;10.2
74432;PMS7003;62865;53.146;23.172;2022-08-16T19:13:06;18.6;16.2;11.2
74432;PMS7003;62865;53.146;23.172;2022-08-16T19:18:02;15;13.8;10.2
74432;PMS7003;62865;53.146;23.172;2022-08-16T19:23:29;15.8;14.2;10
74432;PMS7003;62865;53.146;23.172;2022-08-16T19:28:14;17.2;16;10.8
74432;PMS7003;62865;53.146;23.172;2022-08-16T19:33:19;18.6;17.2;11.2
74432;PMS7003;62865;53.146;23.172;2022-08-16T19:38:21;17.4;16.2;11.2
74432;PMS7003;62865;53.146;23.172;2022-08-16T19:43:36;16.4;15.6;11.6
74432;PMS7003;62865;53.146;23.172;2022-08-16T19:48:38;19;17.6;12.6
74432;PMS7003;62865;53.146;23.172;2022-08-16T19:53:16;19.2;18;12.4
74432;PMS7003;62865;53.146;23.172;2022-08-16T19:58:32;21.6;19.6;13.2
74432;PMS7003;62865;53.146;23.172;2022-08-16T20:03:37;19.6;18;12.2
74432;PMS7003;62865;53.146;23.172;2022-08-16T20:08:38;20.2;18.6;12.8
74432;PMS7003;62865;53.146;23.172;2022-08-16T20:12:56;18.6;17.2;12.4
74432;PMS7003;62865;53.146;23.172;2022-08-16T20:17:56;19.8;19.2;12.6
74432;PMS7003;62865;53.146;23.172;2022-08-16T20:23:37;19.4;17.2;12.8
74432;PMS7003;62865;53.146;23.172;2022-08-16T20:28:29;19.2;17.6;12.6
74432;PMS7003;62865;53.146;23.172;2022-08-16T20:33:22;18;17.2;11.4
74432;PMS7003;62865;53.146;23.172;2022-08-16T20:38:18;21.2;19;13.6
74432;PMS7003;62865;53.146;23.172;2022-08-16T20:43:21;17.4;17.2;12.4
74432;PMS7003;62865;53.146;23.172;2022-08-16T20:48:14;19;17.2;12.2
74432;PMS7003;62865;53.146;23.172;2022-08-16T20:53:29;19.2;17.6;11.6
74432;PMS7003;62865;53.146;23.172;2022-08-16T20:58:36;19.4;16.4;12.2
74432;PMS7003;62865;53.146;23.172;2022-08-16T21:02:56;19.2;18.4;13
74432;PMS7003;62865;53.146;23.172;2022-08-16T21:07:56;20.2;18;12.6
74432;PMS7003;62865;53.146;23.172;2022-08-16T21:13:36;19.6;17.4;12.4
74432;PMS7003;62865;53.146;23.172;2022-08-16T21:18:30;20.2;18;12.8
74432;PMS7003;62865;53.146;23.172;2022-08-16T21:23:38;20.4;18.4;13.4
74432;PMS7003;62865;53.146;23.172;2022-08-16T21:28:16;21;19.6;13.8
74432;PMS7003;62865;53.146;23.172;2022-08-16T21:33:30;20.4;18.4;13.4
74432;PMS7003;62865;53.146;23.172;2022-08-16T21:38:38;20.2;20;13.8
74432;PMS7003;62865;53.146;23.172;2022-08-16T21:43:30;21.4;19.6;14
74432;PMS7003;62865;53.146;23.172;2022-08-16T21:48:14;22.2;20.4;14.6
74432;PMS7003;62865;53.146;23.172;2022-08-16T21:53:14;23.4;21.8;15.4
74432;PMS7003;62865;53.146;23.172;2022-08-16T21:58:14;21.8;20.2;14
74432;PMS7003;62865;53.146;23.172;2022-08-16T22:03:16;21.6;20.4;14.2
74432;PMS7003;62865;53.146;23.172;2022-08-16T22:08:22;22.8;20.8;14.8
74432;PMS7003;62865;53.146;23.172;2022-08-16T22:13:36;22;20.4;14.6
74432;PMS7003;62865;53.146;23.172;2022-08-16T22:18:24;21.4;20.2;13.4
74432;PMS7003;62865;53.146;23.172;2022-08-16T22:23:15;19.6;18;13
74432;PMS7003;62865;53.146;23.172;2022-08-16T22:28:16;19.3;18.8;13
74432;PMS7003;62865;53.146;23.172;2022-08-16T22:33:23;20.6;19.6;13.6
74432;PMS7003;62865;53.146;23.172;2022-08-16T22:38:37;20.6;18.6;13
74432;PMS7003;62865;53.146;23.172;2022-08-16T22:42:56;20.2;19.2;13
74432;PMS7003;62865;53.146;23.172;2022-08-16T22:48:30;19.2;18.4;13.2
74432;PMS7003;62865;53.146;23.172;2022-08-16T22:53:02;20.8;19.6;13.8
74432;PMS7003;62865;53.146;23.172;2022-08-16T22:58:27;19.6;19;14
74432;PMS7003;62865;53.146;23.172;2022-08-16T23:03:21;20.4;19;13
74432;PMS7003;62865;53.146;23.172;2022-08-16T23:08:31;21.4;19.2;13
74432;PMS7003;62865;53.146;23.172;2022-08-16T23:13:22;22.2;19.8;14.2
74432;PMS7003;62865;53.146;23.172;2022-08-16T23:18:22;20.6;19.6;13.6
74432;PMS7003;62865;53.146;23.172;2022-08-16T23:23:30;21.6;19.8;14.4
74432;PMS7003;62865;53.146;23.172;2022-08-16T23:28:37;20.2;19.8;13.6
74432;PMS7003;62865;53.146;23.172;2022-08-16T23:33:16;21.8;20;13.6
74432;PMS7003;62865;53.146;23.172;2022-08-16T23:37:56;22.6;21;13.6
74432;PMS7003;62865;53.146;23.172;2022-08-16T23:43:09;20.6;19.4;13.8
74432;PMS7003;62865;53.146;23.172;2022-08-16T23:48:36;21.8;20;13.8
74432;PMS7003;62865;53.146;23.172;2022-08-16T23:53:39;20.2;19.4;13.2
74432;PMS7003;62865;53.146;23.172;2022-08-16T23:58:15;21.2;18.8;13.4
